АЭРОДРОМУУД

ICAO:
ZMUB
Нэр:
УЛААНБААТАР / БУЯНТ-УХАА
Ахц:
475033N 1064603E
291121 ZMUBYNYX
(A0984/21 NOTAMN
Q) ZMUB/QFALT/IV/NBO/A /000/999/4750N10646E005
A) ZMUB B) 2111300000 C) PERM
E) AD AVBL FOR EMERGENCY LANDING.)
- 4 hours ago -
231154 ZMUBYNYX
(A0981/21 NOTAMN
Q) ZMUB/QFATT/IV/BO /A /000/999/4750N10646E005
A) ZMUB B) 2112300000 C) 2201122359
E) TRIGGER NOTAM-PERM AIRAC AIP AMDT 08/21 WEF 30 DEC 2021 INTERMEDIATE HLDG PSN MARKINGS OF TWY C AND D WITHDRAWN)
- 6 days ago -
010612 ZMUBYNYX
(C0320/21 NOTAMR C0319/21
Q) ZMUB/QKKKK/K /K /K /000/999/4752N10350E999
A) ZMUB B) 2111010612 C) 2112010700 EST
E) CHECKLIST YEAR=2021 0182 0183 0274 0275 0276 0277 0278 0279 0280 0281 0282 0284 0285 0287 0289 0293 0294 0303 0304 0305 0306 0307 0312 0313 0314 0315 0316 0317 0318 LATEST PUBLICATIONS: AIRAC AIP AMDT: 07/21 WEF 02 DEC 2021 AIP AMDT : 06/21 PUBLICATION DATE 26 AUG 2021 AIP DATA SET : AIPZM-AMDT08-21 PUB 21 OCT 2021 OBST DATA SET : O-AREA1ZM200618 WEF 18 JUN 2020 O-AREA2ZMCK200618 WEF 18 JUN 2020 O-AREA2ZMUB200730 WEF 10 SEP 2020 O-AREA3ZMCK200618 WEF 18 JUN 2020 O-AREA3ZMUB200618 WEF 18 JUN 2020. TERRAIN DATA SET : T-AREA1ZM200618 WEF 18 JUN 2020 T-AREA2ZMCK200618 WEF 18 JUN 2020 T-AREA2ZMUB200618 WEF 18 JUN 2020 T-AREA3ZMCK200618 WEF 18 JUN 2020 T-AREA3ZMUB200618 WEF 18 JUN 2020. AD MAPPING DATA SET : AMDBZMCK200618 WEF 18 JUN 2020 AMDBZMUB200618 WEF 18 JUN 2020 AMDBZMDZ200618 WEF 18 JUN 2020 IFP DATA SET : IFPZM21 WEF 04 JAN 2021 AIP SUP CHECKLIST: AIP SUP: 01/20, 08/20 AIRAC AIP SUP: 01/21 AIC CHECKLIST: AIC (SERIES C): 02/08, 02/20, 01/21)
- 1 month ago -
010600 ZMUBYNYX
(A0900/21 NOTAMR A0771/21
Q) ZMUB/QKKKK/K /K /K /000/999/4752N10350E999
A) ZMUB B) 2111010600 C) 2112010700 EST
E) CHECKLIST YEAR=2021 0770 0784 0881 0882 0888 0889 0890 0891 0892 0893 0894 0895 0896 0897 0898 0899 LATEST PUBLICATIONS: AIRAC AIP AMDT: 07/21 WEF 02 DEC 2021 AIP AMDT : 06/21 PUBLICATION DATE 26 AUG 2021 AIP DATA SET : AIPZM-AMDT08-21 PUB 21 OCT 2021 OBST DATA SET : O-AREA1ZM200618 WEF 18 JUN 2020 O-AREA2ZMCK200618 WEF 18 JUN 2020 O-AREA2ZMUB200730 WEF 10 SEP 2020 O-AREA3ZMCK200618 WEF 18 JUN 2020 O-AREA3ZMUB200618 WEF 18 JUN 2020. TERRAIN DATA SET : T-AREA1ZM200618 WEF 18 JUN 2020 T-AREA2ZMCK200618 WEF 18 JUN 2020 T-AREA2ZMUB200618 WEF 18 JUN 2020 T-AREA3ZMCK200618 WEF 18 JUN 2020 T-AREA3ZMUB200618 WEF 18 JUN 2020. AD MAPPING DATA SET : AMDBZMCK200618 WEF 18 JUN 2020 AMDBZMUB200618 WEF 18 JUN 2020 AMDBZMDZ200618 WEF 18 JUN 2020 IFP DATA SET : IFPZM21 WEF 04 JAN 2021 AIP SUP CHECKLIST: AIP SUP: 01/20, 08/20 AIRAC AIP SUP: 01/21 AIC CHECKLIST: AIC (SERIES A): 04/17, 03/20, 06/20, 01/21, 02/21, 03/21)
- 1 month ago -
010200 ZMUBYNYX
(A0899/21 NOTAMN
Q) ZMUB/QFALT/IV/NBO/A /000/999/4750N10646E005
A) ZMUB B) 2111010200 C) 2111300000
E) AD AVBL FOR EMERGENCY LANDING.)
- 1 month ago -
METAR
No records found.
TAF
TAF ZMUB 282240Z 2900/3006 VRB02MPS 9999 SCT033 BKN100 TXM10/2906Z TNM26/2922Z TEMPO 2900/2904 6000 SN SCT030 BKN080 BECMG 2903/2905 33005MPS BECMG 2909/2911 VRB02MPS SCT100=
- 14 hours ago -
TAF ZMUB 281640Z 2818/2924 VRB02MPS 9999 SCT033 BKN100 TNM22/2822Z TXM10/2906Z TEMPO 2818/2902 6000 SN SCT030 BKN080 BECMG 2903/2905 33005MPS BECMG 2909/2911 VRB02MPS SCT100=
- 23 hours ago -
TAF ZMUB 281040Z 2812/2918 VRB02MPS 9999 SCT033 BKN100 TNM22/2822Z TXM10/2906Z TEMPO 2819/2903 6000 SN SCT030 BKN080 BECMG 2902/2904 33005MPS BECMG 2909/2911 VRB02MPS SCT100=
- 1 day ago -
TAF ZMUB 280440Z 2806/2912 VRB02MPS 9999 SCT100 TXM09/2806Z TNM22/2822Z BECMG 2902/2904 33005MPS BECMG 2909/2911 VRB02MPS=
- 1 day ago -